sensor_id;sensor_type;location;lat;lon;timestamp;P1;durP1;ratioP1;P2;durP2;ratioP2
55224;SDS011;41091;49.400;8.684;2023-04-15T00:00:30;2.35;;;1.30;;
55224;SDS011;41091;49.400;8.684;2023-04-15T00:02:55;4.28;;;1.73;;
55224;SDS011;41091;49.400;8.684;2023-04-15T00:05:20;9.20;;;1.73;;
55224;SDS011;41091;49.400;8.684;2023-04-15T00:07:46;3.22;;;1.40;;
55224;SDS011;41091;49.400;8.684;2023-04-15T00:10:13;1.80;;;1.23;;
55224;SDS011;41091;49.400;8.684;2023-04-15T00:12:39;1.50;;;1.15;;
55224;SDS011;41091;49.400;8.684;2023-04-15T00:15:05;3.90;;;1.50;;
55224;SDS011;41091;49.400;8.684;2023-04-15T00:17:32;3.72;;;1.80;;
55224;SDS011;41091;49.400;8.684;2023-04-15T00:20:00;3.67;;;1.52;;
55224;SDS011;41091;49.400;8.684;2023-04-15T00:22:25;5.93;;;1.92;;
55224;SDS011;41091;49.400;8.684;2023-04-15T00:24:51;5.65;;;1.40;;
55224;SDS011;41091;49.400;8.684;2023-04-15T00:27:22;7.13;;;1.85;;
55224;SDS011;41091;49.400;8.684;2023-04-15T00:29:47;5.80;;;1.92;;
55224;SDS011;41091;49.400;8.684;2023-04-15T00:32:12;1.45;;;1.35;;
55224;SDS011;41091;49.400;8.684;2023-04-15T00:34:38;3.95;;;1.52;;
55224;SDS011;41091;49.400;8.684;2023-04-15T00:37:06;2.85;;;1.73;;
55224;SDS011;41091;49.400;8.684;2023-04-15T00:39:34;4.72;;;1.40;;
55224;SDS011;41091;49.400;8.684;2023-04-15T00:42:00;1.90;;;1.30;;
55224;SDS011;41091;49.400;8.684;2023-04-15T00:44:26;2.42;;;1.35;;
55224;SDS011;41091;49.400;8.684;2023-04-15T00:46:53;2.55;;;1.20;;
55224;SDS011;41091;49.400;8.684;2023-04-15T00:49:19;1.52;;;1.20;;
55224;SDS011;41091;49.400;8.684;2023-04-15T00:51:44;5.20;;;1.35;;
55224;SDS011;41091;49.400;8.684;2023-04-15T00:54:10;1.67;;;1.15;;
55224;SDS011;41091;49.400;8.684;2023-04-15T00:56:38;3.42;;;1.40;;
55224;SDS011;41091;49.400;8.684;2023-04-15T01:01:32;2.63;;;1.42;;
55224;SDS011;41091;49.400;8.684;2023-04-15T01:04:01;2.40;;;2.20;;
55224;SDS011;41091;49.400;8.684;2023-04-15T01:06:27;3.30;;;1.33;;
55224;SDS011;41091;49.400;8.684;2023-04-15T01:08:53;5.93;;;1.40;;
55224;SDS011;41091;49.400;8.684;2023-04-15T01:11:19;6.40;;;1.33;;
55224;SDS011;41091;49.400;8.684;2023-04-15T01:13:46;3.30;;;1.15;;
55224;SDS011;41091;49.400;8.684;2023-04-15T01:16:12;1.20;;;1.00;;
55224;SDS011;41091;49.400;8.684;2023-04-15T01:18:38;5.32;;;1.40;;
55224;SDS011;41091;49.400;8.684;2023-04-15T01:21:04;1.17;;;1.10;;
55224;SDS011;41091;49.400;8.684;2023-04-15T01:23:30;2.17;;;1.13;;
55224;SDS011;41091;49.400;8.684;2023-04-15T01:25:56;2.20;;;1.60;;
55224;SDS011;41091;49.400;8.684;2023-04-15T01:28:23;1.35;;;1.15;;
55224;SDS011;41091;49.400;8.684;2023-04-15T01:31:04;1.17;;;1.15;;
55224;SDS011;41091;49.400;8.684;2023-04-15T01:33:35;4.47;;;1.95;;
55224;SDS011;41091;49.400;8.684;2023-04-15T01:36:00;1.60;;;1.50;;
55224;SDS011;41091;49.400;8.684;2023-04-15T01:38:26;5.70;;;1.30;;
55224;SDS011;41091;49.400;8.684;2023-04-15T01:40:54;3.70;;;1.35;;
55224;SDS011;41091;49.400;8.684;2023-04-15T01:43:19;1.60;;;1.45;;
55224;SDS011;41091;49.400;8.684;2023-04-15T01:45:47;1.50;;;1.00;;
55224;SDS011;41091;49.400;8.684;2023-04-15T01:48:12;4.13;;;1.50;;
55224;SDS011;41091;49.400;8.684;2023-04-15T01:50:37;2.47;;;1.52;;
55224;SDS011;41091;49.400;8.684;2023-04-15T01:53:03;2.78;;;1.63;;
55224;SDS011;41091;49.400;8.684;2023-04-15T01:55:29;3.45;;;1.25;;
55224;SDS011;41091;49.400;8.684;2023-04-15T01:57:54;2.58;;;1.52;;
55224;SDS011;41091;49.400;8.684;2023-04-15T02:00:22;1.20;;;1.10;;
55224;SDS011;41091;49.400;8.684;2023-04-15T02:02:53;4.25;;;1.48;;
55224;SDS011;41091;49.400;8.684;2023-04-15T02:05:19;2.90;;;1.40;;
55224;SDS011;41091;49.400;8.684;2023-04-15T02:07:44;2.38;;;1.20;;
55224;SDS011;41091;49.400;8.684;2023-04-15T02:10:10;1.00;;;1.00;;
55224;SDS011;41091;49.400;8.684;2023-04-15T02:12:38;6.18;;;1.60;;
55224;SDS011;41091;49.400;8.684;2023-04-15T02:15:04;8.45;;;1.48;;
55224;SDS011;41091;49.400;8.684;2023-04-15T02:17:33;2.58;;;1.10;;
55224;SDS011;41091;49.400;8.684;2023-04-15T02:20:01;4.38;;;1.67;;
55224;SDS011;41091;49.400;8.684;2023-04-15T02:22:32;3.70;;;1.23;;
55224;SDS011;41091;49.400;8.684;2023-04-15T02:25:01;0.98;;;0.98;;
55224;SDS011;41091;49.400;8.684;2023-04-15T02:27:26;1.38;;;1.25;;
55224;SDS011;41091;49.400;8.684;2023-04-15T02:29:54;1.35;;;1.33;;
55224;SDS011;41091;49.400;8.684;2023-04-15T02:32:19;1.45;;;1.35;;
55224;SDS011;41091;49.400;8.684;2023-04-15T02:34:48;1.48;;;1.38;;
55224;SDS011;41091;49.400;8.684;2023-04-15T02:37:13;2.22;;;1.77;;
55224;SDS011;41091;49.400;8.684;2023-04-15T02:39:43;3.88;;;1.83;;
55224;SDS011;41091;49.400;8.684;2023-04-15T02:42:08;1.55;;;1.17;;
55224;SDS011;41091;49.400;8.684;2023-04-15T02:44:33;2.67;;;1.58;;
55224;SDS011;41091;49.400;8.684;2023-04-15T02:47:01;2.60;;;1.63;;
55224;SDS011;41091;49.400;8.684;2023-04-15T02:49:27;2.03;;;1.50;;
55224;SDS011;41091;49.400;8.684;2023-04-15T02:51:55;4.25;;;1.17;;
55224;SDS011;41091;49.400;8.684;2023-04-15T02:54:24;1.77;;;1.35;;
55224;SDS011;41091;49.400;8.684;2023-04-15T02:56:52;1.38;;;1.27;;
55224;SDS011;41091;49.400;8.684;2023-04-15T02:59:20;2.78;;;1.17;;
55224;SDS011;41091;49.400;8.684;2023-04-15T03:01:46;4.05;;;1.42;;
55224;SDS011;41091;49.400;8.684;2023-04-15T03:04:11;3.33;;;1.75;;
55224;SDS011;41091;49.400;8.684;2023-04-15T03:06:40;10.77;;;2.05;;
55224;SDS011;41091;49.400;8.684;2023-04-15T03:09:05;3.85;;;1.63;;
55224;SDS011;41091;49.400;8.684;2023-04-15T03:11:31;1.83;;;1.10;;
55224;SDS011;41091;49.400;8.684;2023-04-15T03:13:56;1.88;;;1.40;;
55224;SDS011;41091;49.400;8.684;2023-04-15T03:16:22;4.00;;;1.40;;
55224;SDS011;41091;49.400;8.684;2023-04-15T03:18:48;2.25;;;1.20;;
55224;SDS011;41091;49.400;8.684;2023-04-15T03:21:13;2.30;;;1.35;;
55224;SDS011;41091;49.400;8.684;2023-04-15T03:23:43;1.48;;;0.95;;
55224;SDS011;41091;49.400;8.684;2023-04-15T03:26:09;2.25;;;1.27;;
55224;SDS011;41091;49.400;8.684;2023-04-15T03:28:34;1.20;;;1.10;;
55224;SDS011;41091;49.400;8.684;2023-04-15T03:31:03;0.88;;;0.88;;
55224;SDS011;41091;49.400;8.684;2023-04-15T03:33:28;1.58;;;1.17;;
55224;SDS011;41091;49.400;8.684;2023-04-15T03:35:58;3.25;;;1.20;;
55224;SDS011;41091;49.400;8.684;2023-04-15T03:38:26;1.73;;;1.20;;
55224;SDS011;41091;49.400;8.684;2023-04-15T03:40:51;4.18;;;1.05;;
55224;SDS011;41091;49.400;8.684;2023-04-15T03:43:16;1.08;;;0.98;;
55224;SDS011;41091;49.400;8.684;2023-04-15T03:45:45;1.50;;;1.50;;
55224;SDS011;41091;49.400;8.684;2023-04-15T03:48:10;1.50;;;0.98;;
55224;SDS011;41091;49.400;8.684;2023-04-15T03:50:38;1.90;;;1.50;;
55224;SDS011;41091;49.400;8.684;2023-04-15T03:53:03;1.50;;;1.40;;
55224;SDS011;41091;49.400;8.684;2023-04-15T03:55:29;3.25;;;1.73;;
55224;SDS011;41091;49.400;8.684;2023-04-15T03:57:57;2.70;;;2.03;;
55224;SDS011;41091;49.400;8.684;2023-04-15T04:00:22;2.92;;;2.63;;
55224;SDS011;41091;49.400;8.684;2023-04-15T04:02:47;4.20;;;2.08;;
55224;SDS011;41091;49.400;8.684;2023-04-15T04:05:13;1.60;;;1.50;;
55224;SDS011;41091;49.400;8.684;2023-04-15T04:07:38;7.63;;;1.92;;
55224;SDS011;41091;49.400;8.684;2023-04-15T04:10:03;6.13;;;2.25;;
55224;SDS011;41091;49.400;8.684;2023-04-15T04:12:31;3.95;;;2.53;;
55224;SDS011;41091;49.400;8.684;2023-04-15T04:14:57;4.40;;;2.70;;
55224;SDS011;41091;49.400;8.684;2023-04-15T04:17:22;3.55;;;2.42;;
55224;SDS011;41091;49.400;8.684;2023-04-15T04:19:47;6.53;;;2.88;;
55224;SDS011;41091;49.400;8.684;2023-04-15T04:22:13;6.60;;;2.75;;
55224;SDS011;41091;49.400;8.684;2023-04-15T04:24:40;8.27;;;2.95;;
55224;SDS011;41091;49.400;8.684;2023-04-15T04:27:06;5.07;;;2.85;;
55224;SDS011;41091;49.400;8.684;2023-04-15T04:29:31;10.55;;;3.00;;
55224;SDS011;41091;49.400;8.684;2023-04-15T04:31:56;6.80;;;2.50;;
55224;SDS011;41091;49.400;8.684;2023-04-15T04:34:24;2.05;;;1.95;;
55224;SDS011;41091;49.400;8.684;2023-04-15T04:36:54;7.53;;;2.80;;
55224;SDS011;41091;49.400;8.684;2023-04-15T04:39:20;6.38;;;2.30;;
55224;SDS011;41091;49.400;8.684;2023-04-15T04:41:45;9.30;;;3.40;;
55224;SDS011;41091;49.400;8.684;2023-04-15T04:44:11;3.97;;;3.17;;
55224;SDS011;41091;49.400;8.684;2023-04-15T04:46:41;8.35;;;3.88;;
55224;SDS011;41091;49.400;8.684;2023-04-15T04:49:06;5.45;;;3.15;;
55224;SDS011;41091;49.400;8.684;2023-04-15T04:51:32;8.55;;;3.78;;
55224;SDS011;41091;49.400;8.684;2023-04-15T04:53:59;5.22;;;3.65;;
55224;SDS011;41091;49.400;8.684;2023-04-15T04:56:29;8.40;;;3.25;;
55224;SDS011;41091;49.400;8.684;2023-04-15T04:58:54;6.00;;;3.67;;
55224;SDS011;41091;49.400;8.684;2023-04-15T05:01:22;3.35;;;2.88;;
55224;SDS011;41091;49.400;8.684;2023-04-15T05:03:47;11.38;;;3.08;;
55224;SDS011;41091;49.400;8.684;2023-04-15T05:06:16;4.07;;;2.22;;
55224;SDS011;41091;49.400;8.684;2023-04-15T05:08:41;8.85;;;5.10;;
55224;SDS011;41091;49.400;8.684;2023-04-15T05:11:06;3.70;;;2.78;;
55224;SDS011;41091;49.400;8.684;2023-04-15T05:13:32;4.80;;;3.15;;
55224;SDS011;41091;49.400;8.684;2023-04-15T05:16:00;8.23;;;3.50;;
55224;SDS011;41091;49.400;8.684;2023-04-15T05:18:26;7.05;;;3.30;;
55224;SDS011;41091;49.400;8.684;2023-04-15T05:20:51;11.13;;;3.28;;
55224;SDS011;41091;49.400;8.684;2023-04-15T05:23:16;5.75;;;3.42;;
55224;SDS011;41091;49.400;8.684;2023-04-15T05:25:42;8.48;;;3.42;;
55224;SDS011;41091;49.400;8.684;2023-04-15T05:28:07;6.13;;;3.30;;
55224;SDS011;41091;49.400;8.684;2023-04-15T05:30:35;9.30;;;3.47;;
55224;SDS011;41091;49.400;8.684;2023-04-15T05:33:00;4.38;;;2.67;;
55224;SDS011;41091;49.400;8.684;2023-04-15T05:35:28;6.25;;;4.13;;
55224;SDS011;41091;49.400;8.684;2023-04-15T05:37:56;7.43;;;3.28;;
55224;SDS011;41091;49.400;8.684;2023-04-15T05:40:21;4.32;;;3.33;;
55224;SDS011;41091;49.400;8.684;2023-04-15T05:42:47;5.85;;;3.53;;
55224;SDS011;41091;49.400;8.684;2023-04-15T05:45:15;8.55;;;3.38;;
55224;SDS011;41091;49.400;8.684;2023-04-15T05:47:42;4.20;;;3.80;;
55224;SDS011;41091;49.400;8.684;2023-04-15T05:50:08;3.60;;;3.08;;
55224;SDS011;41091;49.400;8.684;2023-04-15T05:52:34;6.63;;;3.63;;
55224;SDS011;41091;49.400;8.684;2023-04-15T05:54:59;10.15;;;4.35;;
55224;SDS011;41091;49.400;8.684;2023-04-15T05:57:24;6.38;;;3.97;;
55224;SDS011;41091;49.400;8.684;2023-04-15T05:59:53;6.55;;;4.97;;
55224;SDS011;41091;49.400;8.684;2023-04-15T06:02:24;6.18;;;4.43;;
55224;SDS011;41091;49.400;8.684;2023-04-15T06:04:49;5.55;;;4.22;;
55224;SDS011;41091;49.400;8.684;2023-04-15T06:07:14;6.55;;;3.72;;
55224;SDS011;41091;49.400;8.684;2023-04-15T06:09:42;5.45;;;3.83;;
55224;SDS011;41091;49.400;8.684;2023-04-15T06:12:08;10.02;;;3.67;;
55224;SDS011;41091;49.400;8.684;2023-04-15T06:14:36;8.43;;;3.85;;
55224;SDS011;41091;49.400;8.684;2023-04-15T06:17:04;9.90;;;4.22;;
55224;SDS011;41091;49.400;8.684;2023-04-15T06:19:30;4.57;;;3.90;;
55224;SDS011;41091;49.400;8.684;2023-04-15T06:21:56;7.97;;;4.05;;
55224;SDS011;41091;49.400;8.684;2023-04-15T06:24:22;6.72;;;3.60;;
55224;SDS011;41091;49.400;8.684;2023-04-15T06:26:47;5.07;;;4.05;;
55224;SDS011;41091;49.400;8.684;2023-04-15T06:29:15;9.48;;;4.70;;
55224;SDS011;41091;49.400;8.684;2023-04-15T06:31:41;7.18;;;4.25;;
55224;SDS011;41091;49.400;8.684;2023-04-15T06:34:06;7.22;;;4.60;;
55224;SDS011;41091;49.400;8.684;2023-04-15T06:36:31;5.60;;;3.35;;
55224;SDS011;41091;49.400;8.684;2023-04-15T06:38:57;11.18;;;4.22;;
55224;SDS011;41091;49.400;8.684;2023-04-15T06:41:22;5.82;;;3.72;;
55224;SDS011;41091;49.400;8.684;2023-04-15T06:43:48;3.78;;;3.35;;
55224;SDS011;41091;49.400;8.684;2023-04-15T06:46:15;6.70;;;4.20;;
55224;SDS011;41091;49.400;8.684;2023-04-15T06:48:41;7.20;;;4.07;;
55224;SDS011;41091;49.400;8.684;2023-04-15T06:51:06;4.32;;;3.50;;
55224;SDS011;41091;49.400;8.684;2023-04-15T06:53:31;10.30;;;4.10;;
55224;SDS011;41091;49.400;8.684;2023-04-15T06:55:59;8.88;;;3.72;;
55224;SDS011;41091;49.400;8.684;2023-04-15T06:58:29;8.95;;;4.45;;
55224;SDS011;41091;49.400;8.684;2023-04-15T07:00:57;6.60;;;3.70;;
55224;SDS011;41091;49.400;8.684;2023-04-15T07:03:22;5.22;;;3.38;;
55224;SDS011;41091;49.400;8.684;2023-04-15T07:05:50;6.68;;;3.50;;
55224;SDS011;41091;49.400;8.684;2023-04-15T07:08:18;7.90;;;3.60;;
55224;SDS011;41091;49.400;8.684;2023-04-15T07:10:43;6.82;;;3.45;;
55224;SDS011;41091;49.400;8.684;2023-04-15T07:13:09;8.00;;;4.18;;
55224;SDS011;41091;49.400;8.684;2023-04-15T07:15:37;11.70;;;3.75;;
55224;SDS011;41091;49.400;8.684;2023-04-15T07:18:05;6.90;;;4.13;;
55224;SDS011;41091;49.400;8.684;2023-04-15T07:20:33;6.43;;;3.88;;
55224;SDS011;41091;49.400;8.684;2023-04-15T07:22:59;12.07;;;3.75;;
55224;SDS011;41091;49.400;8.684;2023-04-15T07:25:26;12.55;;;3.75;;
55224;SDS011;41091;49.400;8.684;2023-04-15T07:27:52;7.88;;;3.90;;
55224;SDS011;41091;49.400;8.684;2023-04-15T07:30:20;8.52;;;3.88;;
55224;SDS011;41091;49.400;8.684;2023-04-15T07:32:46;9.80;;;3.25;;
55224;SDS011;41091;49.400;8.684;2023-04-15T07:35:11;13.82;;;3.25;;
55224;SDS011;41091;49.400;8.684;2023-04-15T07:37:37;6.05;;;3.58;;
55224;SDS011;41091;49.400;8.684;2023-04-15T07:40:03;6.40;;;3.60;;
55224;SDS011;41091;49.400;8.684;2023-04-15T07:42:29;5.70;;;3.83;;
55224;SDS011;41091;49.400;8.684;2023-04-15T07:44:56;7.85;;;3.97;;
55224;SDS011;41091;49.400;8.684;2023-04-15T07:47:22;7.75;;;3.70;;
55224;SDS011;41091;49.400;8.684;2023-04-15T07:49:47;13.15;;;3.67;;
55224;SDS011;41091;49.400;8.684;2023-04-15T07:52:13;6.35;;;3.95;;
55224;SDS011;41091;49.400;8.684;2023-04-15T07:54:38;7.22;;;3.38;;
55224;SDS011;41091;49.400;8.684;2023-04-15T07:57:06;3.53;;;3.20;;
55224;SDS011;41091;49.400;8.684;2023-04-15T07:59:31;8.93;;;4.32;;
55224;SDS011;41091;49.400;8.684;2023-04-15T08:02:01;4.13;;;3.53;;
55224;SDS011;41091;49.400;8.684;2023-04-15T08:04:27;7.57;;;4.55;;
55224;SDS011;41091;49.400;8.684;2023-04-15T08:06:53;11.32;;;5.00;;
55224;SDS011;41091;49.400;8.684;2023-04-15T08:09:18;6.13;;;4.22;;
55224;SDS011;41091;49.400;8.684;2023-04-15T08:11:46;8.68;;;3.83;;
55224;SDS011;41091;49.400;8.684;2023-04-15T08:14:16;6.55;;;4.15;;
55224;SDS011;41091;49.400;8.684;2023-04-15T08:16:41;15.68;;;5.10;;
55224;SDS011;41091;49.400;8.684;2023-04-15T08:19:09;11.23;;;4.40;;
55224;SDS011;41091;49.400;8.684;2023-04-15T08:21:35;3.58;;;3.28;;
55224;SDS011;41091;49.400;8.684;2023-04-15T08:24:00;6.88;;;4.25;;
55224;SDS011;41091;49.400;8.684;2023-04-15T08:26:25;5.75;;;3.65;;
55224;SDS011;41091;49.400;8.684;2023-04-15T08:28:51;8.50;;;4.50;;
55224;SDS011;41091;49.400;8.684;2023-04-15T08:31:18;6.65;;;4.00;;
55224;SDS011;41091;49.400;8.684;2023-04-15T08:33:46;6.07;;;4.10;;
55224;SDS011;41091;49.400;8.684;2023-04-15T08:36:12;6.65;;;4.40;;
55224;SDS011;41091;49.400;8.684;2023-04-15T08:38:38;5.00;;;3.50;;
55224;SDS011;41091;49.400;8.684;2023-04-15T08:41:06;4.30;;;3.80;;
55224;SDS011;41091;49.400;8.684;2023-04-15T08:43:37;10.20;;;3.13;;
55224;SDS011;41091;49.400;8.684;2023-04-15T08:46:08;3.50;;;2.80;;
55224;SDS011;41091;49.400;8.684;2023-04-15T08:48:35;5.28;;;3.00;;
55224;SDS011;41091;49.400;8.684;2023-04-15T08:51:04;4.45;;;3.38;;
55224;SDS011;41091;49.400;8.684;2023-04-15T08:53:33;6.28;;;3.55;;
55224;SDS011;41091;49.400;8.684;2023-04-15T08:55:59;3.53;;;3.00;;
55224;SDS011;41091;49.400;8.684;2023-04-15T08:58:29;4.07;;;2.95;;
55224;SDS011;41091;49.400;8.684;2023-04-15T09:00:55;5.10;;;3.00;;
55224;SDS011;41091;49.400;8.684;2023-04-15T09:03:21;3.33;;;3.13;;
55224;SDS011;41091;49.400;8.684;2023-04-15T09:05:47;6.28;;;3.08;;
55224;SDS011;41091;49.400;8.684;2023-04-15T09:08:14;4.15;;;2.78;;
55224;SDS011;41091;49.400;8.684;2023-04-15T09:10:40;4.65;;;2.72;;
55224;SDS011;41091;49.400;8.684;2023-04-15T09:13:05;4.25;;;3.28;;
55224;SDS011;41091;49.400;8.684;2023-04-15T09:15:31;5.15;;;2.90;;
55224;SDS011;41091;49.400;8.684;2023-04-15T09:17:57;4.70;;;2.92;;
55224;SDS011;41091;49.400;8.684;2023-04-15T09:20:22;6.35;;;2.58;;
55224;SDS011;41091;49.400;8.684;2023-04-15T09:22:48;8.35;;;3.00;;
55224;SDS011;41091;49.400;8.684;2023-04-15T09:30:14;5.28;;;2.70;;
55224;SDS011;41091;49.400;8.684;2023-04-15T09:35:18;5.82;;;2.78;;
55224;SDS011;41091;49.400;8.684;2023-04-15T09:37:44;7.38;;;3.03;;
55224;SDS011;41091;49.400;8.684;2023-04-15T09:40:12;4.22;;;2.63;;
55224;SDS011;41091;49.400;8.684;2023-04-15T09:43:01;4.70;;;2.90;;
55224;SDS011;41091;49.400;8.684;2023-04-15T09:45:27;2.65;;;2.45;;
55224;SDS011;41091;49.400;8.684;2023-04-15T09:47:52;5.30;;;3.17;;
55224;SDS011;41091;49.400;8.684;2023-04-15T09:50:18;4.60;;;2.75;;
55224;SDS011;41091;49.400;8.684;2023-04-15T09:52:46;5.13;;;2.60;;
55224;SDS011;41091;49.400;8.684;2023-04-15T09:55:16;4.30;;;2.50;;
55224;SDS011;41091;49.400;8.684;2023-04-15T09:57:42;4.10;;;1.98;;
55224;SDS011;41091;49.400;8.684;2023-04-15T10:00:11;5.38;;;2.22;;
55224;SDS011;41091;49.400;8.684;2023-04-15T10:02:40;6.97;;;2.40;;
55224;SDS011;41091;49.400;8.684;2023-04-15T10:05:06;3.38;;;2.00;;
55224;SDS011;41091;49.400;8.684;2023-04-15T10:07:34;6.55;;;2.42;;
55224;SDS011;41091;49.400;8.684;2023-04-15T10:10:00;3.47;;;1.90;;
55224;SDS011;41091;49.400;8.684;2023-04-15T10:12:29;6.30;;;2.55;;
55224;SDS011;41091;49.400;8.684;2023-04-15T10:14:57;2.05;;;1.80;;
55224;SDS011;41091;49.400;8.684;2023-04-15T10:17:24;2.58;;;1.92;;
55224;SDS011;41091;49.400;8.684;2023-04-15T10:19:54;3.33;;;2.40;;
55224;SDS011;41091;49.400;8.684;2023-04-15T10:22:21;7.60;;;1.92;;
55224;SDS011;41091;49.400;8.684;2023-04-15T10:24:47;3.22;;;2.05;;
55224;SDS011;41091;49.400;8.684;2023-04-15T10:27:12;2.35;;;2.25;;
55224;SDS011;41091;49.400;8.684;2023-04-15T10:29:41;3.75;;;2.40;;
55224;SDS011;41091;49.400;8.684;2023-04-15T10:32:09;4.03;;;2.17;;
55224;SDS011;41091;49.400;8.684;2023-04-15T10:34:35;7.65;;;2.55;;
55224;SDS011;41091;49.400;8.684;2023-04-15T10:37:01;3.08;;;2.75;;
55224;SDS011;41091;49.400;8.684;2023-04-15T10:42:07;3.67;;;3.13;;
55224;SDS011;41091;49.400;8.684;2023-04-15T10:44:49;2.95;;;2.72;;
55224;SDS011;41091;49.400;8.684;2023-04-15T10:47:20;3.88;;;3.22;;
55224;SDS011;41091;49.400;8.684;2023-04-15T10:50:19;2.53;;;2.33;;
55224;SDS011;41091;49.400;8.684;2023-04-15T10:52:39;5.05;;;4.10;;
55224;SDS011;41091;49.400;8.684;2023-04-15T10:55:18;3.00;;;2.65;;
55224;SDS011;41091;49.400;8.684;2023-04-15T10:57:50;4.82;;;2.85;;
55224;SDS011;41091;49.400;8.684;2023-04-15T11:00:17;3.63;;;2.33;;
55224;SDS011;41091;49.400;8.684;2023-04-15T11:02:44;4.38;;;2.90;;
55224;SDS011;41091;49.400;8.684;2023-04-15T11:05:10;3.38;;;2.13;;
55224;SDS011;41091;49.400;8.684;2023-04-15T11:13:01;15.15;;;2.35;;
55224;SDS011;41091;49.400;8.684;2023-04-15T11:17:55;1.92;;;1.70;;
55224;SDS011;41091;49.400;8.684;2023-04-15T11:20:23;4.28;;;1.20;;
55224;SDS011;41091;49.400;8.684;2023-04-15T11:22:49;6.90;;;1.60;;
55224;SDS011;41091;49.400;8.684;2023-04-15T11:25:25;6.72;;;1.85;;
55224;SDS011;41091;49.400;8.684;2023-04-15T11:27:54;3.13;;;1.38;;
55224;SDS011;41091;49.400;8.684;2023-04-15T11:30:23;2.90;;;1.70;;
55224;SDS011;41091;49.400;8.684;2023-04-15T11:32:52;2.57;;;1.10;;
55224;SDS011;41091;49.400;8.684;2023-04-15T11:35:19;3.83;;;1.58;;
55224;SDS011;41091;49.400;8.684;2023-04-15T11:37:47;5.45;;;1.10;;
55224;SDS011;41091;49.400;8.684;2023-04-15T11:40:13;7.00;;;2.03;;
55224;SDS011;41091;49.400;8.684;2023-04-15T11:42:41;2.05;;;0.93;;
55224;SDS011;41091;49.400;8.684;2023-04-15T11:45:10;2.13;;;0.80;;
55224;SDS011;41091;49.400;8.684;2023-04-15T11:47:37;3.38;;;1.42;;
55224;SDS011;41091;49.400;8.684;2023-04-15T11:50:17;2.50;;;1.35;;
55224;SDS011;41091;49.400;8.684;2023-04-15T11:52:56;7.85;;;1.30;;
55224;SDS011;41091;49.400;8.684;2023-04-15T11:55:28;6.15;;;0.85;;
55224;SDS011;41091;49.400;8.684;2023-04-15T12:00:40;8.55;;;0.95;;
55224;SDS011;41091;49.400;8.684;2023-04-15T12:03:21;3.55;;;1.27;;
55224;SDS011;41091;49.400;8.684;2023-04-15T12:06:02;2.85;;;1.10;;
55224;SDS011;41091;49.400;8.684;2023-04-15T12:11:34;2.33;;;1.05;;
55224;SDS011;41091;49.400;8.684;2023-04-15T12:16:28;1.48;;;1.33;;
55224;SDS011;41091;49.400;8.684;2023-04-15T12:18:55;2.38;;;1.05;;
55224;SDS011;41091;49.400;8.684;2023-04-15T12:21:23;0.80;;;0.80;;
55224;SDS011;41091;49.400;8.684;2023-04-15T12:23:50;0.98;;;0.90;;
55224;SDS011;41091;49.400;8.684;2023-04-15T12:26:17;2.22;;;1.20;;
55224;SDS011;41091;49.400;8.684;2023-04-15T12:28:43;4.00;;;0.90;;
55224;SDS011;41091;49.400;8.684;2023-04-15T12:31:14;2.90;;;1.05;;
55224;SDS011;41091;49.400;8.684;2023-04-15T12:33:39;1.92;;;1.08;;
55224;SDS011;41091;49.400;8.684;2023-04-15T12:36:05;0.80;;;0.80;;
55224;SDS011;41091;49.400;8.684;2023-04-15T12:38:30;6.38;;;1.30;;
55224;SDS011;41091;49.400;8.684;2023-04-15T12:40:56;1.70;;;1.10;;
55224;SDS011;41091;49.400;8.684;2023-04-15T12:43:22;2.83;;;0.80;;
55224;SDS011;41091;49.400;8.684;2023-04-15T12:45:47;1.30;;;1.20;;
55224;SDS011;41091;49.400;8.684;2023-04-15T12:48:13;2.30;;;0.98;;
55224;SDS011;41091;49.400;8.684;2023-04-15T12:50:38;9.30;;;1.20;;
55224;SDS011;41091;49.400;8.684;2023-04-15T12:53:06;1.23;;;1.13;;
55224;SDS011;41091;49.400;8.684;2023-04-15T12:57:59;2.20;;;0.93;;
55224;SDS011;41091;49.400;8.684;2023-04-15T13:00:26;1.05;;;0.93;;
55224;SDS011;41091;49.400;8.684;2023-04-15T13:02:52;1.00;;;1.00;;
55224;SDS011;41091;49.400;8.684;2023-04-15T13:05:18;1.80;;;1.60;;
55224;SDS011;41091;49.400;8.684;2023-04-15T13:07:43;1.00;;;1.00;;
55224;SDS011;41091;49.400;8.684;2023-04-15T13:10:09;1.60;;;0.75;;
55224;SDS011;41091;49.400;8.684;2023-04-15T13:12:36;0.80;;;0.77;;
55224;SDS011;41091;49.400;8.684;2023-04-15T13:15:04;5.10;;;1.05;;
55224;SDS011;41091;49.400;8.684;2023-04-15T13:17:30;2.28;;;1.05;;
55224;SDS011;41091;49.400;8.684;2023-04-15T13:19:58;1.85;;;0.82;;
55224;SDS011;41091;49.400;8.684;2023-04-15T13:22:23;1.83;;;1.00;;
55224;SDS011;41091;49.400;8.684;2023-04-15T13:24:48;3.65;;;0.90;;
55224;SDS011;41091;49.400;8.684;2023-04-15T13:27:15;2.60;;;1.02;;
55224;SDS011;41091;49.400;8.684;2023-04-15T13:29:40;0.90;;;0.82;;
55224;SDS011;41091;49.400;8.684;2023-04-15T13:32:08;5.13;;;0.90;;
55224;SDS011;41091;49.400;8.684;2023-04-15T13:34:36;6.85;;;0.70;;
55224;SDS011;41091;49.400;8.684;2023-04-15T13:37:07;1.88;;;1.77;;
55224;SDS011;41091;49.400;8.684;2023-04-15T13:39:33;1.85;;;0.60;;
55224;SDS011;41091;49.400;8.684;2023-04-15T13:41:58;0.70;;;0.70;;
55224;SDS011;41091;49.400;8.684;2023-04-15T13:44:23;9.52;;;1.25;;
55224;SDS011;41091;49.400;8.684;2023-04-15T13:46:49;0.95;;;0.93;;
55224;SDS011;41091;49.400;8.684;2023-04-15T13:49:14;1.55;;;0.80;;
55224;SDS011;41091;49.400;8.684;2023-04-15T13:51:40;1.15;;;0.90;;
55224;SDS011;41091;49.400;8.684;2023-04-15T13:54:05;1.50;;;0.93;;
55224;SDS011;41091;49.400;8.684;2023-04-15T13:56:31;2.45;;;0.70;;
55224;SDS011;41091;49.400;8.684;2023-04-15T13:58:56;2.58;;;0.82;;
55224;SDS011;41091;49.400;8.684;2023-04-15T14:01:25;0.50;;;0.50;;
55224;SDS011;41091;49.400;8.684;2023-04-15T14:03:51;1.77;;;1.25;;
55224;SDS011;41091;49.400;8.684;2023-04-15T14:06:16;0.65;;;0.65;;
55224;SDS011;41091;49.400;8.684;2023-04-15T14:08:42;1.15;;;0.73;;
55224;SDS011;41091;49.400;8.684;2023-04-15T14:11:09;0.80;;;0.77;;
55224;SDS011;41091;49.400;8.684;2023-04-15T14:13:37;1.27;;;0.63;;
55224;SDS011;41091;49.400;8.684;2023-04-15T14:16:03;0.75;;;0.60;;
55224;SDS011;41091;49.400;8.684;2023-04-15T14:18:29;0.70;;;0.63;;
55224;SDS011;41091;49.400;8.684;2023-04-15T14:20:54;0.50;;;0.50;;
55224;SDS011;41091;49.400;8.684;2023-04-15T14:23:20;0.40;;;0.40;;
55224;SDS011;41091;49.400;8.684;2023-04-15T14:25:45;0.90;;;0.82;;
55224;SDS011;41091;49.400;8.684;2023-04-15T14:28:11;0.77;;;0.68;;
55224;SDS011;41091;49.400;8.684;2023-04-15T14:30:36;0.77;;;0.77;;
55224;SDS011;41091;49.400;8.684;2023-04-15T14:33:01;1.02;;;0.57;;
55224;SDS011;41091;49.400;8.684;2023-04-15T14:35:27;0.90;;;0.80;;
55224;SDS011;41091;49.400;8.684;2023-04-15T14:37:56;2.05;;;0.80;;
55224;SDS011;41091;49.400;8.684;2023-04-15T14:40:21;0.95;;;0.60;;
55224;SDS011;41091;49.400;8.684;2023-04-15T14:42:47;2.90;;;1.00;;
55224;SDS011;41091;49.400;8.684;2023-04-15T14:45:12;0.63;;;0.63;;
55224;SDS011;41091;49.400;8.684;2023-04-15T14:47:38;0.90;;;0.90;;
55224;SDS011;41091;49.400;8.684;2023-04-15T14:50:03;0.65;;;0.60;;
55224;SDS011;41091;49.400;8.684;2023-04-15T14:52:32;0.70;;;0.70;;
55224;SDS011;41091;49.400;8.684;2023-04-15T14:55:04;0.68;;;0.68;;
55224;SDS011;41091;49.400;8.684;2023-04-15T14:57:30;1.08;;;0.77;;
55224;SDS011;41091;49.400;8.684;2023-04-15T14:59:55;1.63;;;0.93;;
55224;SDS011;41091;49.400;8.684;2023-04-15T15:02:21;0.98;;;0.88;;
55224;SDS011;41091;49.400;8.684;2023-04-15T15:04:46;0.98;;;0.98;;
55224;SDS011;41091;49.400;8.684;2023-04-15T15:07:12;1.45;;;1.10;;
55224;SDS011;41091;49.400;8.684;2023-04-15T15:09:40;3.67;;;0.90;;
55224;SDS011;41091;49.400;8.684;2023-04-15T15:12:07;0.88;;;0.80;;
55224;SDS011;41091;49.400;8.684;2023-04-15T15:14:33;0.80;;;0.80;;
55224;SDS011;41091;49.400;8.684;2023-04-15T15:17:03;1.00;;;0.70;;